Station: Low Rocky Point  

  Atmospheric Gas Attenuation - ITU Rec 676-11   ----------------- dB/100km -----------------
Date Time Temp RH % AH g/m3 Dew Point Wind Direction Speed kph Gust kph Barometer mB Rainfall Since 9am 24GHz 47GHz 76GHz 122GHz 134GHz 241GHz
08/05 12:30 13.4 75 8.72 9.1 30 44 1018.1 0.2 19.9 26.4 40.7 106.8 100.9 347.2
08/05 12:20 12.1 77 8.26 8.2 35 41 1018.1 0.2 18.9 26.0 39.5 103.5 96.4 331.2
08/05 12:10 12.6 77 8.52 8.7 28 35 1018 0.2 19.5 26.3 40.3 105.7 99.3 341.3
08/05 12:00 12.3 79 8.58 8.8 32 43 1018 0.2 19.6 26.5 40.7 106.8 100.5 345.4
08/05 11:50 12.6 80 8.85 9.2 32 37 1018 0.2 20.2 26.8 41.6 109.3 103.7 356.9
08/05 11:40 11.9 82 8.69 8.9 33 39 1017.9 0.2 19.9 26.8 41.3 108.5 102.5 352.4
08/05 11:30 11.9 85 9 9.5 32 44 1017.9 0.2 20.5 27.3 42.6 112.0 106.7 367.3
08/05 11:20 11.8 85 8.95 9.4 30 41 1017.8 0.2 20.4 27.2 42.5 111.5 106.2 365.3
08/05 11:10 11.1 85 8.56 8.7 26 35 1017.7 0.2 19.6 26.8 41.2 108.1 101.7 349.7
08/05 11:00 11.5 84 8.68 8.9 28 43 1017.7 0.2 19.9 26.9 41.5 108.9 102.8 353.7
08/05 10:50 12.4 80 8.74 9.1 20 26 1017.6 0.2 20.0 26.7 41.3 108.3 102.5 352.4
08/05 10:40 12.2 80 8.63 8.9 28 32 1017.5 0.2 19.7 26.6 40.9 107.4 101.2 348.1
08/05 10:30 12 82 8.74 9 26 41 1017.4 0.2 20.0 26.8 41.5 108.9 103.0 354.2
08/05 10:20 12.1 82 8.79 9.1 26 32 1017.3 0.2 20.1 26.9 41.6 109.3 103.5 356.1
08/05 10:10 11.4 83 8.52 8.6 28 35 1017.1 0.2 19.5 26.6 40.9 107.2 100.7 346.3
08/05 10:00 11.2 86 8.72 8.9 26 46 1017.1 0.2 20.0 27.0 41.8 109.7 103.7 356.8
08/05 09:50 11.4 83 8.52 8.6 33 43 1017.1 0.2 19.5 26.6 40.9 107.2 100.7 346.3
08/05 09:40 12 82 8.74 9 26 33 1016.9 0.2 20.0 26.8 41.5 108.8 102.9 354.1
08/05 09:30 11.8 81 8.53 8.6 26 37 1016.9 0.2 19.5 26.5 40.7 106.8 100.3 344.9
08/05 09:20 11.6 82 8.52 8.6 22 30 1017 0 19.5 26.6 40.8 106.9 100.5 345.4
08/05 09:10 11.3 83 8.47 8.5 30 33 1017 0 19.4 26.6 40.7 106.8 100.2 344.3
08/05 09:00 11.2 83 8.41 8.4 30 39 1017 0 19.3 26.5 40.5 106.3 99.5 341.9
08/05 08:50 11 84 8.41 8.4 28 37 1016.9 8.6 19.3 26.5 40.6 106.5 99.7 342.8
08/05 08:40 11.1 85 8.56 8.7 32 43 1016.7 8.6 19.6 26.8 41.2 108.0 101.6 349.4
08/05 08:30 10.7 88 8.65 8.8 26 35 1016.6 8.6 19.8 27.0 41.8 109.6 103.4 355.6
08/05 08:20 10.5 88 8.54 8.6 20 24 1016.3 8.6 19.6 26.9 41.4 108.6 102.1 351.1
08/05 08:10 11.2 86 8.72 8.9 41 50 1016.2 8.6 20.0 27.0 41.8 109.6 103.7 356.5
08/05 08:00 10.8 87 8.6 8.7 24 37 1016.1 8.6 19.7 26.9 41.5 108.8 102.5 352.6
08/05 07:50 10.7 86 8.45 8.5 24 30 1015.9 8.6 19.4 26.7 40.9 107.3 100.6 345.7
08/05 07:40 10.6 84 8.2 8 32 35 1015.8 8.6 18.9 26.3 39.9 104.6 97.3 334.2
08/05 07:30 10.3 83 7.95 7.5 30 43 1015.7 8.6 18.4 25.9 39.0 102.3 94.3 323.5
08/05 07:20 10 84 7.9 7.4 26 35 1015.5 8.6 18.3 25.9 38.9 102.1 93.9 322.3
08/05 07:10 10.2 86 8.19 8 30 37 1015.3 8.6 18.9 26.4 40.0 105.0 97.6 335.3
08/05 07:00 10.5 85 8.25 8.1 35 52 1015 8.6 19.0 26.4 40.1 105.2 98.0 336.8
08/05 06:50 10.4 85 8.19 8 30 33 1014.9 8.6 18.9 26.3 39.9 104.7 97.3 334.3
08/05 06:40 10.1 86 8.13 7.9 35 44 1014.9 8.6 18.8 26.3 39.8 104.4 96.9 332.7
08/05 06:30 10.4 88 8.48 8.5 30 39 1014.9 8.6 19.5 26.8 41.1 107.9 101.3 348.2
08/05 06:20 9.9 88 8.22 8 33 41 1014.7 8.6 19.0 26.5 40.3 105.7 98.4 337.8
08/05 06:10 10.5 89 8.63 8.8 35 48 1014.6 8.6 19.8 27.0 41.7 109.4 103.2 354.9
08/05 06:00 10.1 88 8.32 8.2 33 44 1014.3 8.6 19.2 26.6 40.6 106.5 99.5 341.7
08/05 05:50 9.8 88 8.17 7.9 35 41 1014.2 8.6 18.9 26.4 40.1 105.2 97.8 335.7
08/05 05:40 9.6 90 8.25 8 32 37 1014.1 8.6 19.0 26.6 40.5 106.4 99.1 340.4
08/05 05:30 10.1 91 8.61 8.7 35 59 1013.9 8.6 19.8 27.0 41.8 109.7 103.4 355.6
08/05 05:20 10.1 91 8.61 8.7 28 37 1013.6 8 19.8 27.0 41.8 109.7 103.4 355.5
08/05 05:10 10.1 91 8.61 8.7 33 37 1013.4 8 19.8 27.0 41.8 109.6 103.4 355.5
08/05 05:00 9.7 91 8.39 8.3 33 46 1013.3 8 19.3 26.8 41.0 107.7 100.9 346.5
08/05 04:50 10 91 8.55 8.6 39 52 1013.2 8 19.7 26.9 41.5 109.1 102.7 352.9
08/05 04:40 10.6 91 8.88 9.2 35 44 1012.9 8 20.4 27.3 42.6 111.9 106.4 366.1
08/05 04:30 10.2 90 8.57 8.6 30 43 1012.8 7.4 19.7 26.9 41.5 109.0 102.6 352.9
08/05 04:20 9.9 90 8.41 8.3 32 41 1012.6 7.4 19.4 26.7 41.0 107.6 100.8 346.4
08/05 04:10 10.5 91 8.83 9.1 37 48 1012.4 7.4 20.2 27.2 42.4 111.4 105.8 364.0
08/05 04:00 10.1 89 8.42 8.4 35 50 1012.5 7.4 19.4 26.7 40.9 107.4 100.7 346.0
08/05 03:50 10.5 90 8.73 8.9 26 33 1012.2 7.2 20.0 27.1 42.0 110.3 104.4 359.1
08/05 03:40 10.2 90 8.57 8.6 35 43 1012.1 7.2 19.7 26.9 41.5 108.9 102.6 352.7
08/05 03:30 10.3 88 8.43 8.4 35 59 1012.2 7.2 19.4 26.6 40.8 107.2 100.5 345.5
08/05 03:20 10.7 88 8.65 8.8 32 41 1011.9 6.4 19.9 26.8 41.5 109.1 103.0 354.2
08/05 03:10 10.5 89 8.63 8.8 32 39 1011.8 6.4 19.8 26.9 41.6 109.1 103.0 354.1
08/05 03:00 10.5 87 8.44 8.4 37 52 1011.7 6.4 19.4 26.5 40.8 107.0 100.4 344.9
08/05 02:50 11.2 84 8.52 8.6 41 59 1011.6 6.2 19.5 26.5 40.7 106.9 100.5 345.6
08/05 02:40 11 86 8.61 8.8 32 37 1011.4 6.2 19.7 26.7 41.2 108.2 102.0 350.8
08/05 02:30 10.4 87 8.39 8.3 43 63 1011.4 6.2 19.3 26.5 40.6 106.5 99.8 342.9
08/05 02:20 11.1 85 8.56 8.7 37 46 1011.1 6.2 19.6 26.5 40.9 107.4 101.2 347.9
08/05 02:10 10.9 85 8.46 8.5 44 50 1011 6.2 19.4 26.4 40.6 106.6 100.1 343.9
08/05 02:00 11.1 85 8.56 8.7 39 56 1010.8 6.2 19.6 26.5 40.9 107.4 101.1 347.8
08/05 01:50 10.6 86 8.4 8.4 43 54 1010.7 6.2 19.3 26.4 40.5 106.3 99.6 342.3
08/05 01:40 10.4 85 8.19 8 33 44 1010.8 6 18.9 26.1 39.7 104.3 97.0 333.2
08/05 01:30 11.3 83 8.47 8.5 41 56 1010.8 5.8 19.4 26.3 40.4 106.1 99.7 342.6
08/05 01:20 11.4 84 8.62 8.8 43 50 1010.6 5.8 19.8 26.5 41.0 107.6 101.6 349.2
08/05 01:10 11.8 77 8.11 7.9 43 50 1010.4 5.8 18.6 25.6 38.7 101.5 94.2 323.4
08/05 01:00 11.6 81 8.42 8.5 35 50 1010.4 5.8 19.3 26.1 40.0 105.1 98.6 338.8
08/05 00:50 11.3 84 8.57 8.7 35 46 1010.2 5.8 19.7 26.5 40.8 107.2 101.0 347.2
08/05 00:40 11.9 79 8.37 8.4 54 61 1010 5.8 19.2 26.0 39.7 104.1 97.5 335.0
08/05 00:30 11.8 81 8.53 8.6 33 50 1009.9 5.8 19.5 26.2 40.4 106.0 99.7 343.0
08/05 00:20 11.7 83 8.68 8.9 32 41 1009.7 5.8 19.9 26.5 41.0 107.8 101.9 350.5
08/05 00:10 11.3 81 8.26 8.2 32 37 1009.6 5.8 19.0 25.9 39.5 103.7 96.7 332.3
08/05 00:00 11.9 79 8.37 8.4 43 61 1009.4 5.8 19.2 25.9 39.6 104.1 97.4 334.9
07/05 23:50 11.8 82 8.63 8.8 41 52 1009.3 5.8 19.8 26.4 40.8 107.1 101.1 347.6
07/05 23:40 11.3 84 8.57 8.7 41 48 1009.3 5.8 19.7 26.4 40.8 107.1 100.9 346.9
07/05 23:30 12 82 8.74 9 39 54 1009.3 5.8 20.0 26.5 41.1 108.0 102.3 351.9
07/05 23:20 12.1 84 9.01 9.5 35 46 1009.2 5.8 20.6 26.9 42.2 110.8 105.8 364.3
07/05 23:10 11.9 85 9 9.5 46 54 1009.2 5.8 20.5 27.0 42.2 111.0 106.0 364.7
07/05 23:00 11.7 85 8.89 9.3 43 61 1009.2 5.8 20.3 26.8 41.9 110.1 104.7 360.4
07/05 22:50 11.5 87 8.99 9.4 44 59 1009.1 5.8 20.5 27.1 42.4 111.4 106.4 366.1
07/05 22:40 11.5 90 9.3 9.9 39 52 1009.2 5.8 21.2 27.6 43.7 114.9 110.7 381.2
07/05 22:30 11.4 91 9.34 10 41 59 1009.2 5.8 21.3 27.7 43.9 115.6 111.4 383.6
07/05 22:20 11.3 92 9.39 10 44 50 1009.1 5.6 21.4 27.8 44.2 116.3 112.2 386.5
07/05 22:10 11.1 91 9.17 9.7 48 59 1009 5.6 21.0 27.5 43.4 114.0 109.4 376.7
07/05 22:00 11.5 92 9.5 10.2 43 61 1008.9 5.6 21.6 27.9 44.6 117.2 113.4 390.9
07/05 21:50 11.8 91 9.58 10.4 46 65 1008.9 5.6 21.8 28.0 44.7 117.6 114.1 393.3
07/05 21:40 12.2 92 9.93 10.9 41 57 1008.6 5.2 22.5 28.4 46.0 121.0 118.4 408.3
07/05 21:30 12.1 92 9.87 10.8 52 63 1008.5 5.2 22.4 28.4 45.8 120.5 117.7 405.9
07/05 21:20 12.2 92 9.93 10.9 50 56 1008.4 5.2 22.5 28.4 46.0 121.0 118.4 408.3
07/05 21:10 12.5 92 10.12 11.2 48 56 1008.5 5.2 22.9 28.7 46.6 122.7 120.6 416.1
07/05 21:00 12.5 90 9.9 10.9 50 69 1008.5 5 22.5 28.3 45.7 120.2 117.5 405.2
07/05 20:50 12.5 90 9.9 10.9 46 52 1008.4 4.6 22.5 28.3 45.7 120.2 117.5 405.2
07/05 20:40 12.5 90 9.9 10.9 46 65 1008.6 4.6 22.5 28.3 45.7 120.2 117.5 405.3
07/05 20:30 12.4 89 9.73 10.6 52 63 1008.6 4.4 22.1 28.0 45.0 118.4 115.3 397.5
07/05 20:20 12.5 91 10.01 11.1 50 61 1008.4 4.4 22.7 28.5 46.1 121.4 119.1 410.6
07/05 20:10 12.3 91 9.88 10.9 48 56 1008.5 4.4 22.4 28.3 45.7 120.3 117.5 405.3
07/05 20:00 12.5 91 10.01 11.1 50 65 1008.7 4.4 22.7 28.5 46.2 121.5 119.1 410.7

Last Refresh: 08-May-2026 12:08:30

Bureau of Meteorology